Time;durP1;ratioP1;P1;durP2;ratioP2;P2;SDS_P1;SDS_P2;PMS_P1;PMS_P2;Temp;Humidity;BMP_temperature;BMP_pressure;BME280_temperature;BME280_humidity;BME280_pressure;Samples;Min_cycle;Max_cycle;Signal;HPM_P1;HPM_P2
2023/06/24 00:00:52;;;;;;;;;;;;;;;;;;5173452;27;2306;-50
2023/06/24 00:03:19;;;;;;;;;;;;;;;;;;5173102;27;2313;-43
2023/06/24 00:05:49;;;;;;;;;;;;;;;;;;5173350;27;2215;-57
2023/06/24 00:08:20;;;;;;;;;;;;;;;;;;5171608;27;2302;-50
2023/06/24 00:10:48;;;;;;;;;;;;;;;;;;5154476;27;2347;-46
2023/06/24 00:13:15;;;;;;;;;;;;;;;;;;5173293;27;2386;-46
2023/06/24 00:15:43;;;;;;;;;;;;;;;;;;5172849;27;2328;-45
2023/06/24 00:18:10;;;;;;;;;;;;;;;;;;5173097;27;2247;-50
2023/06/24 00:20:38;;;;;;;;;;;;;;;;;;5173316;27;2069;-51
2023/06/24 00:23:05;;;;;;;;;;;;;;;;;;5168900;27;2238;-43
2023/06/24 00:25:33;;;;;;;;;;;;;;;;;;5172721;27;2544;-50
2023/06/24 00:28:00;;;;;;;;;;;;;;;;;;5172935;27;2091;-57
2023/06/24 00:30:27;;;;;;;;;;;;;;;;;;5172652;27;2309;-52
2023/06/24 00:32:55;;;;;;;;;;;;;;;;;;5154101;27;2096;-57
2023/06/24 00:35:23;;;;;;;;;;;;;;;;;;5173033;27;2404;-55
2023/06/24 00:37:57;;;;;;;;;;;;;;;;;;5151691;27;2288;-47
2023/06/24 00:40:24;;;;;;;;;;;;;;;;;;5172995;27;2430;-51
2023/06/24 00:42:53;;;;;;;;;;;;;;;;;;5172617;27;2696;-43
2023/06/24 00:45:20;;;;;;;;;;;;;;;;;;5153919;27;2037;-49
2023/06/24 00:47:48;;;;;;;;;;;;;;;;;;5172602;27;2483;-53
2023/06/24 00:50:16;;;;;;;;;;;;;;;;;;5172596;27;2057;-43
2023/06/24 00:52:43;;;;;;;;;;;;;;;;;;5172666;27;2471;-51
2023/06/24 00:55:14;;;;;;;;;;;;;;;;;;5153900;27;2235;-55
2023/06/24 00:57:43;;;;;;;;;;;;;;;;;;5172820;27;2278;-49
2023/06/24 01:00:15;;;;;;;;;;;;;;;;;;5153706;27;2318;-44
2023/06/24 01:02:43;;;;;;;;;;;;;;;;;;5172875;27;2118;-42
2023/06/24 01:05:11;;;;;;;;;;;;;;;;;;5153434;27;2388;-44
2023/06/24 01:07:38;;;;;;;;;;;;;;;;;;5171748;27;1973;-53
2023/06/24 01:10:07;;;;;;;;;;;;;;;;;;5153860;27;2538;-52
2023/06/24 01:12:35;;;;;;;;;;;;;;;;;;5172377;27;2136;-44
2023/06/24 01:15:03;;;;;;;;;;;;;;;;;;5172599;27;2420;-43
2023/06/24 01:17:53;;;;;;;;;;;;;;;;;;5153614;27;2291;-48
2023/06/24 01:20:29;;;;;;;;;;;;;;;;;;5172799;27;2459;-50
2023/06/24 01:23:06;;;;;;;;;;;;;;;;;;5171298;27;2186;-50
2023/06/24 01:25:43;;;;;;;;;;;;;;;;;;5172363;27;2270;-47
2023/06/24 01:28:19;;;;;;;;;;;;;;;;;;5157459;27;2234;-48
2023/06/24 01:30:54;;;;;;;;;;;;;;;;;;5176280;27;2320;-53
2023/06/24 01:33:29;;;;;;;;;;;;;;;;;;5176316;27;2330;-52
2023/06/24 01:35:58;;;;;;;;;;;;;;;;;;5176213;27;2441;-52
2023/06/24 01:38:31;;;;;;;;;;;;;;;;;;5176407;27;2326;-47
2023/06/24 01:41:00;;;;;;;;;;;;;;;;;;5176056;27;2362;-43
2023/06/24 01:43:28;;;;;;;;;;;;;;;;;;5176074;27;2481;-46
2023/06/24 01:45:56;;;;;;;;;;;;;;;;;;5157419;27;2466;-54
2023/06/24 01:48:28;;;;;;;;;;;;;;;;;;5175722;27;2177;-47
2023/06/24 01:51:00;;;;;;;;;;;;;;;;;;5176038;27;2306;-52
2023/06/24 01:53:28;;;;;;;;;;;;;;;;;;5156753;27;2505;-54
2023/06/24 01:55:57;;;;;;;;;;;;;;;;;;5175877;27;2446;-48
2023/06/24 01:58:25;;;;;;;;;;;;;;;;;;5175698;27;1778;-49
2023/06/24 02:00:53;;;;;;;;;;;;;;;;;;5157057;27;2164;-43
2023/06/24 02:03:21;;;;;;;;;;;;;;;;;;5175789;27;1737;-45
2023/06/24 02:05:49;;;;;;;;;;;;;;;;;;5175691;27;2343;-50
2023/06/24 02:08:20;;;;;;;;;;;;;;;;;;5173635;27;1894;-47
2023/06/24 02:10:48;;;;;;;;;;;;;;;;;;5175588;27;2173;-52
2023/06/24 02:13:16;;;;;;;;;;;;;;;;;;5175986;27;2211;-44
2023/06/24 02:15:43;;;;;;;;;;;;;;;;;;5175434;27;2040;-47
2023/06/24 02:18:13;;;;;;;;;;;;;;;;;;5156505;27;2568;-43
2023/06/24 02:20:43;;;;;;;;;;;;;;;;;;5175215;27;2130;-44
2023/06/24 02:23:12;;;;;;;;;;;;;;;;;;5175275;27;2246;-51
2023/06/24 02:25:40;;;;;;;;;;;;;;;;;;5175229;27;2271;-42
2023/06/24 02:28:08;;;;;;;;;;;;;;;;;;5175012;27;2004;-56
2023/06/24 02:30:36;;;;;;;;;;;;;;;;;;5156316;27;2371;-49
2023/06/24 02:33:03;;;;;;;;;;;;;;;;;;5156235;27;2142;-51
2023/06/24 02:35:31;;;;;;;;;;;;;;;;;;5174816;27;2332;-50
2023/06/24 02:37:58;;;;;;;;;;;;;;;;;;5156183;27;2187;-55
2023/06/24 02:40:26;;;;;;;;;;;;;;;;;;5156109;27;2177;-43
2023/06/24 02:42:53;;;;;;;;;;;;;;;;;;5156016;27;2370;-43
2023/06/24 02:45:21;;;;;;;;;;;;;;;;;;5174906;27;2290;-47
2023/06/24 02:47:49;;;;;;;;;;;;;;;;;;5156234;27;2482;-49
2023/06/24 02:50:16;;;;;;;;;;;;;;;;;;5174356;27;2397;-50
2023/06/24 02:52:45;;;;;;;;;;;;;;;;;;5156324;27;2310;-49
2023/06/24 02:55:15;;;;;;;;;;;;;;;;;;5155720;27;2273;-46
2023/06/24 02:57:46;;;;;;;;;;;;;;;;;;5174792;27;2330;-49
2023/06/24 03:00:20;;;;;;;;;;;;;;;;;;5174591;27;2242;-43
2023/06/24 03:03:20;;;;;;;;;;;;;;;;;;5153430;27;1740;-56
2023/06/24 03:05:53;;;;;;;;;;;;;;;;;;5155666;27;1789;-57
2023/06/24 03:08:24;;;;;;;;;;;;;;;;;;5155801;27;2142;-54
2023/06/24 03:10:54;;;;;;;;;;;;;;;;;;5155701;27;2084;-52
2023/06/24 03:13:24;;;;;;;;;;;;;;;;;;5155916;27;2395;-54
2023/06/24 03:16:12;;;;;;;;;;;;;;;;;;5173410;27;2194;-56
2023/06/24 03:18:50;;;;;;;;;;;;;;;;;;5152650;27;2095;-55
2023/06/24 03:21:19;;;;;;;;;;;;;;;;;;5155354;27;2206;-57
2023/06/24 03:23:47;;;;;;;;;;;;;;;;;;5155342;27;2052;-57
2023/06/24 03:26:15;;;;;;;;;;;;;;;;;;5151739;27;2347;-57
2023/06/24 03:28:43;;;;;;;;;;;;;;;;;;5173937;27;2132;-54
2023/06/24 03:31:17;;;;;;;;;;;;;;;;;;5173410;27;2040;-55
2023/06/24 03:33:45;;;;;;;;;;;;;;;;;;5155459;27;2040;-52
2023/06/24 03:36:14;;;;;;;;;;;;;;;;;;5155136;27;2148;-56
2023/06/24 03:38:43;;;;;;;;;;;;;;;;;;5155004;27;2414;-55
2023/06/24 03:41:10;;;;;;;;;;;;;;;;;;5173568;27;2254;-51
2023/06/24 03:43:38;;;;;;;;;;;;;;;;;;5173865;27;2346;-56
2023/06/24 03:46:05;;;;;;;;;;;;;;;;;;5173453;27;2168;-55
2023/06/24 03:48:32;;;;;;;;;;;;;;;;;;5173130;27;2005;-57
2023/06/24 03:51:01;;;;;;;;;;;;;;;;;;5173321;27;2680;-55
2023/06/24 03:53:29;;;;;;;;;;;;;;;;;;5154625;27;2377;-57
2023/06/24 03:55:56;;;;;;;;;;;;;;;;;;5154633;27;2455;-46
2023/06/24 03:58:27;;;;;;;;;;;;;;;;;;5154681;27;2179;-43
2023/06/24 04:00:56;;;;;;;;;;;;;;;;;;5173436;27;2278;-57
2023/06/24 04:03:28;;;;;;;;;;;;;;;;;;5153216;27;2001;-56
2023/06/24 04:05:55;;;;;;;;;;;;;;;;;;5173447;27;2245;-56
2023/06/24 04:08:25;;;;;;;;;;;;;;;;;;5173516;27;2165;-52
2023/06/24 04:10:52;;;;;;;;;;;;;;;;;;5173408;27;2205;-53
2023/06/24 04:13:19;;;;;;;;;;;;;;;;;;5173066;27;2417;-56
2023/06/24 04:15:47;;;;;;;;;;;;;;;;;;5154378;27;2287;-57
2023/06/24 04:18:14;;;;;;;;;;;;;;;;;;5154357;27;2336;-55
2023/06/24 04:20:41;;;;;;;;;;;;;;;;;;5173040;27;2111;-53
2023/06/24 04:23:10;;;;;;;;;;;;;;;;;;5154399;27;2115;-57
2023/06/24 04:25:38;;;;;;;;;;;;;;;;;;5154213;27;2055;-57
2023/06/24 04:28:05;;;;;;;;;;;;;;;;;;5153988;27;2021;-55
2023/06/24 04:30:35;;;;;;;;;;;;;;;;;;5153717;27;2330;-55
2023/06/24 04:33:03;;;;;;;;;;;;;;;;;;5154022;27;2086;-58
2023/06/24 04:35:31;;;;;;;;;;;;;;;;;;5172895;27;2456;-55
2023/06/24 04:37:58;;;;;;;;;;;;;;;;;;5154345;27;2220;-57
2023/06/24 04:40:26;;;;;;;;;;;;;;;;;;5149904;27;2209;-54
2023/06/24 04:42:53;;;;;;;;;;;;;;;;;;5172641;27;2317;-55
2023/06/24 04:45:21;;;;;;;;;;;;;;;;;;5172787;27;2171;-57
2023/06/24 04:47:51;;;;;;;;;;;;;;;;;;5172447;27;2213;-57
2023/06/24 04:50:18;;;;;;;;;;;;;;;;;;5172516;27;2017;-57
2023/06/24 04:52:45;;;;;;;;;;;;;;;;;;5168723;27;2297;-54
2023/06/24 04:55:13;;;;;;;;;;;;;;;;;;5172086;27;2661;-56
2023/06/24 04:57:42;;;;;;;;;;;;;;;;;;5171742;27;2001;-55
2023/06/24 05:00:09;;;;;;;;;;;;;;;;;;5172584;27;2302;-54
2023/06/24 05:02:36;;;;;;;;;;;;;;;;;;5175665;27;2094;-52
2023/06/24 05:05:04;;;;;;;;;;;;;;;;;;5177260;27;2366;-56
2023/06/24 05:07:31;;;;;;;;;;;;;;;;;;5176380;27;1987;-50
2023/06/24 05:09:59;;;;;;;;;;;;;;;;;;5176762;27;2140;-56
2023/06/24 05:12:26;;;;;;;;;;;;;;;;;;5176851;27;2527;-56
2023/06/24 05:14:54;;;;;;;;;;;;;;;;;;5176585;27;2114;-53
2023/06/24 05:17:22;;;;;;;;;;;;;;;;;;5176649;27;2359;-53
2023/06/24 05:19:49;;;;;;;;;;;;;;;;;;5176494;27;2023;-57
2023/06/24 05:22:16;;;;;;;;;;;;;;;;;;5176631;27;2381;-56
2023/06/24 05:24:43;;;;;;;;;;;;;;;;;;5176404;27;2306;-58
2023/06/24 05:27:11;;;;;;;;;;;;;;;;;;5176607;27;2096;-56
2023/06/24 05:29:38;;;;;;;;;;;;;;;;;;5176063;27;2354;-54
2023/06/24 05:32:05;;;;;;;;;;;;;;;;;;5176065;27;2133;-57
2023/06/24 05:34:33;;;;;;;;;;;;;;;;;;5176700;27;2084;-52
2023/06/24 05:37:02;;;;;;;;;;;;;;;;;;5173267;27;1973;-55
2023/06/24 05:39:31;;;;;;;;;;;;;;;;;;5176312;27;1885;-55
2023/06/24 05:41:58;;;;;;;;;;;;;;;;;;5175972;27;2150;-55
2023/06/24 05:44:25;;;;;;;;;;;;;;;;;;5175924;27;2345;-54
2023/06/24 05:46:52;;;;;;;;;;;;;;;;;;5176010;27;2287;-51
2023/06/24 05:49:19;;;;;;;;;;;;;;;;;;5175441;27;2401;-55
2023/06/24 05:51:47;;;;;;;;;;;;;;;;;;5175959;27;2128;-53
2023/06/24 05:54:14;;;;;;;;;;;;;;;;;;5175120;27;2254;-56
2023/06/24 05:56:41;;;;;;;;;;;;;;;;;;5174307;27;2139;-57
2023/06/24 05:59:08;;;;;;;;;;;;;;;;;;5174463;27;2056;-55
2023/06/24 06:01:36;;;;;;;;;;;;;;;;;;5174031;27;2581;-51
2023/06/24 06:04:03;;;;;;;;;;;;;;;;;;5174639;27;1951;-53
2023/06/24 06:06:30;;;;;;;;;;;;;;;;;;5173449;27;2117;-53
2023/06/24 06:08:57;;;;;;;;;;;;;;;;;;5174280;27;2279;-50
2023/06/24 06:11:25;;;;;;;;;;;;;;;;;;5174138;27;2096;-55
2023/06/24 06:13:52;;;;;;;;;;;;;;;;;;5173765;27;2239;-48
2023/06/24 06:16:19;;;;;;;;;;;;;;;;;;5174195;27;2375;-55
2023/06/24 06:18:47;;;;;;;;;;;;;;;;;;5173850;27;2234;-56
2023/06/24 06:21:14;;;;;;;;;;;;;;;;;;5174053;27;2156;-54
2023/06/24 06:23:41;;;;;;;;;;;;;;;;;;5174296;27;2316;-55
2023/06/24 06:26:08;;;;;;;;;;;;;;;;;;5173902;27;2146;-56
2023/06/24 06:28:36;;;;;;;;;;;;;;;;;;5174176;27;2015;-48
2023/06/24 06:31:03;;;;;;;;;;;;;;;;;;5173924;27;1908;-50
2023/06/24 06:33:30;;;;;;;;;;;;;;;;;;5173778;27;2141;-56
2023/06/24 06:35:58;;;;;;;;;;;;;;;;;;5173997;27;2225;-57
2023/06/24 06:38:26;;;;;;;;;;;;;;;;;;5173541;27;2103;-51
2023/06/24 06:40:53;;;;;;;;;;;;;;;;;;5173514;27;2040;-51
2023/06/24 06:43:21;;;;;;;;;;;;;;;;;;5173882;27;2133;-55
2023/06/24 06:45:48;;;;;;;;;;;;;;;;;;5173628;27;1914;-52
2023/06/24 06:48:15;;;;;;;;;;;;;;;;;;5173779;27;1953;-55
2023/06/24 06:50:43;;;;;;;;;;;;;;;;;;5173402;27;2174;-52
2023/06/24 06:53:11;;;;;;;;;;;;;;;;;;5173703;27;1934;-56
2023/06/24 06:55:39;;;;;;;;;;;;;;;;;;5153656;27;2080;-49
2023/06/24 06:58:06;;;;;;;;;;;;;;;;;;5153750;27;2262;-56
2023/06/24 07:00:33;;;;;;;;;;;;;;;;;;5153548;27;2236;-48
2023/06/24 07:03:01;;;;;;;;;;;;;;;;;;5153842;27;2202;-56
2023/06/24 07:05:28;;;;;;;;;;;;;;;;;;5153535;27;2427;-56
2023/06/24 07:07:55;;;;;;;;;;;;;;;;;;5152411;27;2197;-55
2023/06/24 07:10:22;;;;;;;;;;;;;;;;;;5153013;27;2341;-56
2023/06/24 07:12:51;;;;;;;;;;;;;;;;;;5153096;27;2073;-56
2023/06/24 07:15:19;;;;;;;;;;;;;;;;;;5153475;27;2354;-56
2023/06/24 07:17:46;;;;;;;;;;;;;;;;;;5153269;27;2089;-57
2023/06/24 07:20:13;;;;;;;;;;;;;;;;;;5153223;27;2064;-49
2023/06/24 07:22:41;;;;;;;;;;;;;;;;;;5152977;27;2028;-54
2023/06/24 07:25:09;;;;;;;;;;;;;;;;;;5152312;27;1867;-51
2023/06/24 07:27:37;;;;;;;;;;;;;;;;;;5153362;27;1881;-56
2023/06/24 07:30:07;;;;;;;;;;;;;;;;;;5152896;27;1849;-56
2023/06/24 07:32:34;;;;;;;;;;;;;;;;;;5153051;27;1696;-50
2023/06/24 07:35:01;;;;;;;;;;;;;;;;;;5152909;27;1724;-55
2023/06/24 07:37:28;;;;;;;;;;;;;;;;;;5152811;27;1894;-57
2023/06/24 07:39:55;;;;;;;;;;;;;;;;;;5152935;27;1797;-57
2023/06/24 07:42:23;;;;;;;;;;;;;;;;;;5152602;27;2021;-56
2023/06/24 07:44:50;;;;;;;;;;;;;;;;;;5152695;27;1984;-51
2023/06/24 07:47:18;;;;;;;;;;;;;;;;;;5152608;27;2013;-57
2023/06/24 07:49:47;;;;;;;;;;;;;;;;;;5152565;27;2106;-54
2023/06/24 07:52:14;;;;;;;;;;;;;;;;;;5152252;27;1996;-52
2023/06/24 07:54:42;;;;;;;;;;;;;;;;;;5165100;27;2073;-46
2023/06/24 07:57:09;;;;;;;;;;;;;;;;;;5173666;27;1938;-53
2023/06/24 07:59:36;;;;;;;;;;;;;;;;;;5173421;27;2168;-57
2023/06/24 08:02:04;;;;;;;;;;;;;;;;;;5173065;27;2260;-54
2023/06/24 08:04:31;;;;;;;;;;;;;;;;;;5173425;27;2080;-56
2023/06/24 08:06:58;;;;;;;;;;;;;;;;;;5168995;27;2388;-56
2023/06/24 08:09:25;;;;;;;;;;;;;;;;;;5173154;27;2123;-54
2023/06/24 08:11:52;;;;;;;;;;;;;;;;;;5172912;27;2060;-52
2023/06/24 08:14:20;;;;;;;;;;;;;;;;;;5171474;27;2283;-52
2023/06/24 08:16:47;;;;;;;;;;;;;;;;;;5173620;27;2127;-54
2023/06/24 08:19:14;;;;;;;;;;;;;;;;;;5172637;27;2322;-56
2023/06/24 08:21:41;;;;;;;;;;;;;;;;;;5173113;27;2027;-57
2023/06/24 08:24:08;;;;;;;;;;;;;;;;;;5173010;27;2066;-57
2023/06/24 08:26:36;;;;;;;;;;;;;;;;;;5172912;27;2124;-57
2023/06/24 08:29:03;;;;;;;;;;;;;;;;;;5172669;27;2054;-57
2023/06/24 08:31:30;;;;;;;;;;;;;;;;;;5172474;27;2102;-57
2023/06/24 08:34:02;;;;;;;;;;;;;;;;;;5172819;27;1955;-54
2023/06/24 08:36:29;;;;;;;;;;;;;;;;;;5172254;27;2427;-54
2023/06/24 08:38:57;;;;;;;;;;;;;;;;;;5172964;27;2158;-50
2023/06/24 08:41:27;;;;;;;;;;;;;;;;;;5171141;27;2246;-56
2023/06/24 08:43:54;;;;;;;;;;;;;;;;;;5172835;27;2131;-57
2023/06/24 08:46:24;;;;;;;;;;;;;;;;;;5172582;27;2047;-57
2023/06/24 08:48:59;;;;;;;;;;;;;;;;;;5172372;27;2428;-55
2023/06/24 08:51:28;;;;;;;;;;;;;;;;;;5172178;27;2103;-56
2023/06/24 08:53:57;;;;;;;;;;;;;;;;;;5172308;27;2591;-56
2023/06/24 08:56:24;;;;;;;;;;;;;;;;;;5172608;27;2155;-54
2023/06/24 08:58:51;;;;;;;;;;;;;;;;;;5172234;27;2317;-53
2023/06/24 09:01:18;;;;;;;;;;;;;;;;;;5172236;27;2153;-57
2023/06/24 09:03:48;;;;;;;;;;;;;;;;;;5172645;27;2197;-56
2023/06/24 09:06:15;;;;;;;;;;;;;;;;;;5171984;27;2457;-50
2023/06/24 09:08:51;;;;;;;;;;;;;;;;;;5172893;27;2035;-44
2023/06/24 09:11:22;;;;;;;;;;;;;;;;;;5171851;27;1985;-44
2023/06/24 09:13:54;;;;;;;;;;;;;;;;;;5172201;27;1897;-44
2023/06/24 09:16:21;;;;;;;;;;;;;;;;;;5172349;27;1898;-44
2023/06/24 09:18:49;;;;;;;;;;;;;;;;;;5171555;27;2140;-44
2023/06/24 09:21:26;;;;;;;;;;;;;;;;;;5172294;27;2192;-44
2023/06/24 09:23:54;;;;;;;;;;;;;;;;;;5172449;27;2130;-54
2023/06/24 09:26:25;;;;;;;;;;;;;;;;;;5172291;27;2122;-51
2023/06/24 09:28:52;;;;;;;;;;;;;;;;;;5172188;27;2107;-45
2023/06/24 09:31:19;;;;;;;;;;;;;;;;;;5171934;27;2169;-44
2023/06/24 09:33:47;;;;;;;;;;;;;;;;;;5172235;27;2152;-45
2023/06/24 09:36:16;;;;;;;;;;;;;;;;;;5172312;27;1941;-45
2023/06/24 09:38:47;;;;;;;;;;;;;;;;;;5172145;27;2156;-49
2023/06/24 09:41:15;;;;;;;;;;;;;;;;;;5172230;27;2404;-46
2023/06/24 09:43:47;;;;;;;;;;;;;;;;;;5172083;27;2031;-47
2023/06/24 09:46:14;;;;;;;;;;;;;;;;;;5172239;27;2055;-46
2023/06/24 09:48:41;;;;;;;;;;;;;;;;;;5175078;27;2309;-45
2023/06/24 09:51:09;;;;;;;;;;;;;;;;;;5175434;27;1917;-44
2023/06/24 09:53:36;;;;;;;;;;;;;;;;;;5175442;27;1802;-45
2023/06/24 09:56:04;;;;;;;;;;;;;;;;;;5173569;27;1921;-50
2023/06/24 09:58:34;;;;;;;;;;;;;;;;;;5175920;27;1898;-45
2023/06/24 10:01:03;;;;;;;;;;;;;;;;;;5175325;27;2190;-45
2023/06/24 10:03:32;;;;;;;;;;;;;;;;;;5175650;27;1945;-46
2023/06/24 10:06:01;;;;;;;;;;;;;;;;;;5175360;27;2168;-47
2023/06/24 10:08:30;;;;;;;;;;;;;;;;;;5175061;27;2077;-43
2023/06/24 10:10:58;;;;;;;;;;;;;;;;;;5175631;27;2163;-45
2023/06/24 10:13:26;;;;;;;;;;;;;;;;;;5174942;27;2379;-44
2023/06/24 10:15:54;;;;;;;;;;;;;;;;;;5175619;27;2151;-44
2023/06/24 10:18:30;;;;;;;;;;;;;;;;;;5175299;27;2095;-48
2023/06/24 10:20:58;;;;;;;;;;;;;;;;;;5175298;27;1948;-44
2023/06/24 10:23:44;;;;;;;;;;;;;;;;;;5174946;27;2148;-43
2023/06/24 10:26:23;;;;;;;;;;;;;;;;;;5175455;27;2258;-46
2023/06/24 10:29:06;;;;;;;;;;;;;;;;;;5174875;27;2289;-44
2023/06/24 10:31:39;;;;;;;;;;;;;;;;;;5174852;27;2208;-44
2023/06/24 10:34:19;;;;;;;;;;;;;;;;;;5175079;27;2121;-45
2023/06/24 10:37:03;;;;;;;;;;;;;;;;;;5174759;27;2328;-45
2023/06/24 10:39:36;;;;;;;;;;;;;;;;;;5175206;27;2156;-43
2023/06/24 10:42:19;;;;;;;;;;;;;;;;;;5174371;27;2297;-43
2023/06/24 10:44:47;;;;;;;;;;;;;;;;;;5174740;27;2253;-44
2023/06/24 10:47:14;;;;;;;;;;;;;;;;;;5174323;27;2453;-43
2023/06/24 10:49:42;;;;;;;;;;;;;;;;;;5174708;27;2088;-44
2023/06/24 10:52:12;;;;;;;;;;;;;;;;;;5174398;27;2297;-45
2023/06/24 10:54:41;;;;;;;;;;;;;;;;;;5174609;27;2385;-44
2023/06/24 10:57:10;;;;;;;;;;;;;;;;;;5174504;27;2298;-45
2023/06/24 10:59:41;;;;;;;;;;;;;;;;;;5173372;27;2000;-44
2023/06/24 11:02:11;;;;;;;;;;;;;;;;;;5174093;27;2047;-45
2023/06/24 11:05:02;;;;;;;;;;;;;;;;;;5174324;27;2094;-44
2023/06/24 11:07:34;;;;;;;;;;;;;;;;;;5159483;27;1877;-46
2023/06/24 11:10:04;;;;;;;;;;;;;;;;;;5174109;27;1861;-45
2023/06/24 11:12:33;;;;;;;;;;;;;;;;;;5174022;27;2066;-45
2023/06/24 11:15:03;;;;;;;;;;;;;;;;;;5170436;27;1970;-43
2023/06/24 11:17:30;;;;;;;;;;;;;;;;;;5174180;27;1866;-44
2023/06/24 11:19:58;;;;;;;;;;;;;;;;;;5174087;27;2082;-44
2023/06/24 11:22:26;;;;;;;;;;;;;;;;;;5174093;27;1915;-44
2023/06/24 11:24:54;;;;;;;;;;;;;;;;;;5173951;27;1947;-45
2023/06/24 11:27:28;;;;;;;;;;;;;;;;;;5174169;27;2152;-45
2023/06/24 11:29:58;;;;;;;;;;;;;;;;;;5173660;27;2033;-44
2023/06/24 11:32:35;;;;;;;;;;;;;;;;;;5173576;27;1701;-44
2023/06/24 11:35:02;;;;;;;;;;;;;;;;;;5173681;27;1769;-44
2023/06/24 11:37:31;;;;;;;;;;;;;;;;;;5173626;27;1996;-44
2023/06/24 11:40:05;;;;;;;;;;;;;;;;;;5173764;27;2032;-43
2023/06/24 11:42:35;;;;;;;;;;;;;;;;;;5173597;27;1980;-43
2023/06/24 11:45:03;;;;;;;;;;;;;;;;;;5173824;27;1912;-43
2023/06/24 11:47:32;;;;;;;;;;;;;;;;;;5173543;27;1943;-45
2023/06/24 11:50:02;;;;;;;;;;;;;;;;;;5173631;27;1865;-48
2023/06/24 11:52:35;;;;;;;;;;;;;;;;;;5173121;27;1692;-47
2023/06/24 11:55:03;;;;;;;;;;;;;;;;;;5173348;27;2269;-43
2023/06/24 11:57:48;;;;;;;;;;;;;;;;;;5173163;27;2092;-44
2023/06/24 12:00:16;;;;;;;;;;;;;;;;;;5173220;27;2005;-44
2023/06/24 12:02:43;;;;;;;;;;;;;;;;;;5173070;27;2117;-44
2023/06/24 12:05:10;;;;;;;;;;;;;;;;;;5173245;27;2168;-44
2023/06/24 12:07:37;;;;;;;;;;;;;;;;;;5173198;27;2080;-43
2023/06/24 12:10:05;;;;;;;;;;;;;;;;;;5172911;27;2432;-44
2023/06/24 12:12:32;;;;;;;;;;;;;;;;;;5172854;27;2048;-44
2023/06/24 12:14:59;;;;;;;;;;;;;;;;;;5171693;27;2029;-44
2023/06/24 12:17:26;;;;;;;;;;;;;;;;;;5173250;27;2168;-45
2023/06/24 12:19:54;;;;;;;;;;;;;;;;;;5173139;27;2168;-45
2023/06/24 12:22:21;;;;;;;;;;;;;;;;;;5172712;27;2297;-44
2023/06/24 12:24:48;;;;;;;;;;;;;;;;;;5172921;27;2119;-43
2023/06/24 12:27:15;;;;;;;;;;;;;;;;;;5172832;27;1985;-46
2023/06/24 12:29:42;;;;;;;;;;;;;;;;;;5172740;27;1936;-45
2023/06/24 12:32:09;;;;;;;;;;;;;;;;;;5172644;27;2107;-51
2023/06/24 12:34:37;;;;;;;;;;;;;;;;;;5172518;27;2284;-52
2023/06/24 12:37:04;;;;;;;;;;;;;;;;;;5170212;27;2150;-45
2023/06/24 12:39:31;;;;;;;;;;;;;;;;;;5172602;27;1985;-45
2023/06/24 12:41:58;;;;;;;;;;;;;;;;;;5172704;27;2203;-44
2023/06/24 12:44:26;;;;;;;;;;;;;;;;;;5172599;27;2076;-43
2023/06/24 12:46:53;;;;;;;;;;;;;;;;;;5172433;27;2361;-44
2023/06/24 12:49:21;;;;;;;;;;;;;;;;;;5172604;27;1996;-44
2023/06/24 12:51:48;;;;;;;;;;;;;;;;;;5172298;27;2131;-43
2023/06/24 12:54:15;;;;;;;;;;;;;;;;;;5172349;27;2191;-47
2023/06/24 12:56:42;;;;;;;;;;;;;;;;;;5172360;27;2111;-43
2023/06/24 12:59:10;;;;;;;;;;;;;;;;;;5172532;27;1949;-51
2023/06/24 13:01:37;;;;;;;;;;;;;;;;;;5172526;27;2523;-46
2023/06/24 13:04:04;;;;;;;;;;;;;;;;;;5153907;27;2188;-54
2023/06/24 13:06:31;;;;;;;;;;;;;;;;;;5171754;27;2087;-44
2023/06/24 13:08:58;;;;;;;;;;;;;;;;;;5172351;27;2008;-44
2023/06/24 13:11:26;;;;;;;;;;;;;;;;;;5172241;27;1833;-44
2023/06/24 13:13:53;;;;;;;;;;;;;;;;;;5172213;27;1925;-44
2023/06/24 13:16:20;;;;;;;;;;;;;;;;;;5168377;27;2109;-44
2023/06/24 13:18:47;;;;;;;;;;;;;;;;;;5172354;27;1923;-43
2023/06/24 13:21:15;;;;;;;;;;;;;;;;;;5172434;27;2022;-43
2023/06/24 13:23:42;;;;;;;;;;;;;;;;;;5175398;27;1980;-44
2023/06/24 13:26:10;;;;;;;;;;;;;;;;;;5176267;27;2008;-43
2023/06/24 13:28:39;;;;;;;;;;;;;;;;;;5176473;27;2098;-46
2023/06/24 13:31:06;;;;;;;;;;;;;;;;;;5175764;27;2099;-42
2023/06/24 13:33:33;;;;;;;;;;;;;;;;;;5176269;27;1832;-43
2023/06/24 13:36:02;;;;;;;;;;;;;;;;;;5176393;27;1789;-43
2023/06/24 13:38:30;;;;;;;;;;;;;;;;;;5176142;27;2203;-50
2023/06/24 13:40:58;;;;;;;;;;;;;;;;;;5176203;27;2140;-44
2023/06/24 13:43:26;;;;;;;;;;;;;;;;;;5176158;27;2129;-43
2023/06/24 13:45:53;;;;;;;;;;;;;;;;;;5176300;27;1967;-52
2023/06/24 13:48:20;;;;;;;;;;;;;;;;;;5175995;27;1968;-47
2023/06/24 13:50:48;;;;;;;;;;;;;;;;;;5175519;27;2080;-46
2023/06/24 13:53:15;;;;;;;;;;;;;;;;;;5175373;27;2085;-45
2023/06/24 13:55:43;;;;;;;;;;;;;;;;;;5175477;27;2302;-44
2023/06/24 13:58:10;;;;;;;;;;;;;;;;;;5176075;27;1992;-44
2023/06/24 14:00:37;;;;;;;;;;;;;;;;;;5175480;27;2007;-56
2023/06/24 14:03:05;;;;;;;;;;;;;;;;;;5175359;27;2040;-43
2023/06/24 14:05:32;;;;;;;;;;;;;;;;;;5175798;27;2208;-44
2023/06/24 14:07:59;;;;;;;;;;;;;;;;;;5171892;27;2314;-44
2023/06/24 14:10:26;;;;;;;;;;;;;;;;;;5175766;27;2092;-44
2023/06/24 14:12:54;;;;;;;;;;;;;;;;;;5174987;27;2259;-43
2023/06/24 14:15:21;;;;;;;;;;;;;;;;;;5175397;27;2103;-43
2023/06/24 14:17:48;;;;;;;;;;;;;;;;;;5175233;27;2321;-45
2023/06/24 14:20:15;;;;;;;;;;;;;;;;;;5173987;27;2284;-44
2023/06/24 14:22:43;;;;;;;;;;;;;;;;;;5175327;27;2030;-54
2023/06/24 14:25:10;;;;;;;;;;;;;;;;;;5175004;27;2229;-44
2023/06/24 14:27:38;;;;;;;;;;;;;;;;;;5175280;27;2183;-49
2023/06/24 14:30:05;;;;;;;;;;;;;;;;;;5175354;27;2252;-55
2023/06/24 14:32:33;;;;;;;;;;;;;;;;;;5175056;27;2171;-43
2023/06/24 14:35:00;;;;;;;;;;;;;;;;;;5174721;27;2297;-44
2023/06/24 14:37:27;;;;;;;;;;;;;;;;;;5175022;27;2251;-49
2023/06/24 14:39:54;;;;;;;;;;;;;;;;;;5174953;27;2234;-43
2023/06/24 14:42:21;;;;;;;;;;;;;;;;;;5174959;27;2094;-53
2023/06/24 14:44:49;;;;;;;;;;;;;;;;;;5174396;27;2420;-46
2023/06/24 14:47:17;;;;;;;;;;;;;;;;;;5174798;27;2090;-44
2023/06/24 14:49:44;;;;;;;;;;;;;;;;;;5174621;27;2227;-55
2023/06/24 14:52:11;;;;;;;;;;;;;;;;;;5174497;27;2001;-53
2023/06/24 14:54:38;;;;;;;;;;;;;;;;;;5174468;27;2227;-45
2023/06/24 14:57:06;;;;;;;;;;;;;;;;;;5174543;27;2460;-45
2023/06/24 14:59:33;;;;;;;;;;;;;;;;;;5174948;27;1979;-44
2023/06/24 15:02:01;;;;;;;;;;;;;;;;;;5174311;27;2353;-55
2023/06/24 15:04:28;;;;;;;;;;;;;;;;;;5170329;27;2138;-43
2023/06/24 15:06:56;;;;;;;;;;;;;;;;;;5173971;27;1998;-46
2023/06/24 15:09:23;;;;;;;;;;;;;;;;;;5173132;27;2222;-46
2023/06/24 15:11:50;;;;;;;;;;;;;;;;;;5174226;27;2128;-44
2023/06/24 15:14:18;;;;;;;;;;;;;;;;;;5172478;27;2086;-45
2023/06/24 15:16:45;;;;;;;;;;;;;;;;;;5174561;27;2151;-44
2023/06/24 15:19:13;;;;;;;;;;;;;;;;;;5170899;27;2385;-43
2023/06/24 15:21:40;;;;;;;;;;;;;;;;;;5170853;27;2103;-44
2023/06/24 15:24:07;;;;;;;;;;;;;;;;;;5174284;27;2252;-43
2023/06/24 15:26:35;;;;;;;;;;;;;;;;;;5173303;27;2043;-42
2023/06/24 15:29:02;;;;;;;;;;;;;;;;;;5173799;27;2299;-43
2023/06/24 15:31:29;;;;;;;;;;;;;;;;;;5171296;27;2115;-44
2023/06/24 15:33:57;;;;;;;;;;;;;;;;;;5173619;27;2103;-43
2023/06/24 15:36:26;;;;;;;;;;;;;;;;;;5173663;27;1945;-44
2023/06/24 15:38:54;;;;;;;;;;;;;;;;;;5155065;27;2008;-43
2023/06/24 15:41:22;;;;;;;;;;;;;;;;;;5173677;27;1964;-46
2023/06/24 15:43:49;;;;;;;;;;;;;;;;;;5173632;27;2375;-55
2023/06/24 15:46:17;;;;;;;;;;;;;;;;;;5172827;27;2382;-56
2023/06/24 15:48:44;;;;;;;;;;;;;;;;;;5173591;27;2099;-55
2023/06/24 15:51:11;;;;;;;;;;;;;;;;;;5173577;27;2465;-44
2023/06/24 15:53:39;;;;;;;;;;;;;;;;;;5172966;27;2302;-54
2023/06/24 15:56:06;;;;;;;;;;;;;;;;;;5173250;27;2127;-51
2023/06/24 15:58:33;;;;;;;;;;;;;;;;;;5173366;27;2375;-56
2023/06/24 16:01:01;;;;;;;;;;;;;;;;;;5173737;27;2147;-50
2023/06/24 16:03:28;;;;;;;;;;;;;;;;;;5173225;27;2139;-56
2023/06/24 16:05:56;;;;;;;;;;;;;;;;;;5173046;27;2465;-53
2023/06/24 16:08:24;;;;;;;;;;;;;;;;;;5172572;27;2360;-54
2023/06/24 16:10:52;;;;;;;;;;;;;;;;;;5173307;27;2409;-52
2023/06/24 16:13:19;;;;;;;;;;;;;;;;;;5172982;27;2194;-53
2023/06/24 16:15:46;;;;;;;;;;;;;;;;;;5154201;27;2070;-54
2023/06/24 16:18:15;;;;;;;;;;;;;;;;;;5172910;27;1969;-47
2023/06/24 16:20:43;;;;;;;;;;;;;;;;;;5173040;27;2226;-56
2023/06/24 16:23:12;;;;;;;;;;;;;;;;;;5173043;27;2106;-50
2023/06/24 16:25:39;;;;;;;;;;;;;;;;;;5172876;27;2112;-52
2023/06/24 16:28:07;;;;;;;;;;;;;;;;;;5168928;27;2000;-55
2023/06/24 16:30:34;;;;;;;;;;;;;;;;;;5172497;27;1875;-56
2023/06/24 16:33:01;;;;;;;;;;;;;;;;;;5172581;27;2204;-55
2023/06/24 16:35:28;;;;;;;;;;;;;;;;;;5171968;27;2420;-43
2023/06/24 16:37:55;;;;;;;;;;;;;;;;;;5172325;27;2413;-43
2023/06/24 16:40:23;;;;;;;;;;;;;;;;;;5172726;27;2294;-44
2023/06/24 16:42:50;;;;;;;;;;;;;;;;;;5172009;27;2646;-45
2023/06/24 16:45:17;;;;;;;;;;;;;;;;;;5172193;27;2069;-43
2023/06/24 16:47:44;;;;;;;;;;;;;;;;;;5172815;27;2258;-44
2023/06/24 16:50:12;;;;;;;;;;;;;;;;;;5172737;27;2099;-44
2023/06/24 16:52:39;;;;;;;;;;;;;;;;;;5153988;27;2534;-43
2023/06/24 16:55:06;;;;;;;;;;;;;;;;;;5172162;27;2446;-43
2023/06/24 16:57:33;;;;;;;;;;;;;;;;;;5176095;27;2011;-54
2023/06/24 17:00:01;;;;;;;;;;;;;;;;;;5177255;27;2415;-44
2023/06/24 17:02:28;;;;;;;;;;;;;;;;;;5176626;27;2183;-44
2023/06/24 17:04:55;;;;;;;;;;;;;;;;;;5176929;27;2281;-41
2023/06/24 17:07:23;;;;;;;;;;;;;;;;;;5175081;27;2320;-43
2023/06/24 17:09:50;;;;;;;;;;;;;;;;;;5176848;27;2453;-43
2023/06/24 17:12:17;;;;;;;;;;;;;;;;;;5176724;27;2110;-45